sensor_id;sensor_type;location;lat;lon;timestamp;temperature;humidity
18073;DHT22;9161;47.348;9.648;2023-09-12T00:04:12;17.40;99.90
18073;DHT22;9161;47.348;9.648;2023-09-12T00:09:16;17.40;99.90
18073;DHT22;9161;47.348;9.648;2023-09-12T00:14:18;17.20;99.90
18073;DHT22;9161;47.348;9.648;2023-09-12T00:19:20;17.20;99.90
18073;DHT22;9161;47.348;9.648;2023-09-12T00:24:24;17.10;99.90
18073;DHT22;9161;47.348;9.648;2023-09-12T00:29:26;17.10;99.90
18073;DHT22;9161;47.348;9.648;2023-09-12T00:34:28;17.10;99.90
18073;DHT22;9161;47.348;9.648;2023-09-12T00:39:31;17.00;99.90
18073;DHT22;9161;47.348;9.648;2023-09-12T00:44:33;16.90;99.90
18073;DHT22;9161;47.348;9.648;2023-09-12T00:49:36;16.90;99.90
18073;DHT22;9161;47.348;9.648;2023-09-12T00:54:40;16.80;99.90
18073;DHT22;9161;47.348;9.648;2023-09-12T00:59:43;16.60;99.90
18073;DHT22;9161;47.348;9.648;2023-09-12T01:04:45;16.60;99.90
18073;DHT22;9161;47.348;9.648;2023-09-12T01:09:49;16.50;99.90
18073;DHT22;9161;47.348;9.648;2023-09-12T01:14:51;16.60;99.90
18073;DHT22;9161;47.348;9.648;2023-09-12T01:19:53;16.60;99.90
18073;DHT22;9161;47.348;9.648;2023-09-12T01:25:21;16.60;99.90
18073;DHT22;9161;47.348;9.648;2023-09-12T01:30:32;16.60;99.90
18073;DHT22;9161;47.348;9.648;2023-09-12T01:35:36;16.60;99.90
18073;DHT22;9161;47.348;9.648;2023-09-12T01:40:43;16.50;99.90
18073;DHT22;9161;47.348;9.648;2023-09-12T01:45:48;16.60;99.90
18073;DHT22;9161;47.348;9.648;2023-09-12T01:50:51;16.50;99.90
18073;DHT22;9161;47.348;9.648;2023-09-12T01:55:54;16.50;99.90
18073;DHT22;9161;47.348;9.648;2023-09-12T02:00:59;16.50;99.90
18073;DHT22;9161;47.348;9.648;2023-09-12T02:06:01;16.40;99.90
18073;DHT22;9161;47.348;9.648;2023-09-12T02:11:03;16.40;99.90
18073;DHT22;9161;47.348;9.648;2023-09-12T02:16:07;16.40;99.90
18073;DHT22;9161;47.348;9.648;2023-09-12T02:21:10;16.50;99.90
18073;DHT22;9161;47.348;9.648;2023-09-12T02:26:12;16.40;99.90
18073;DHT22;9161;47.348;9.648;2023-09-12T02:31:15;16.30;99.90
18073;DHT22;9161;47.348;9.648;2023-09-12T02:36:17;16.30;99.90
18073;DHT22;9161;47.348;9.648;2023-09-12T02:41:19;16.30;99.90
18073;DHT22;9161;47.348;9.648;2023-09-12T02:46:23;16.50;99.90
18073;DHT22;9161;47.348;9.648;2023-09-12T02:51:25;16.50;99.90
18073;DHT22;9161;47.348;9.648;2023-09-12T02:56:28;16.40;99.90
18073;DHT22;9161;47.348;9.648;2023-09-12T03:01:32;16.40;99.90
18073;DHT22;9161;47.348;9.648;2023-09-12T03:06:34;16.40;99.90
18073;DHT22;9161;47.348;9.648;2023-09-12T03:11:36;16.30;99.90
18073;DHT22;9161;47.348;9.648;2023-09-12T03:16:39;16.30;99.90
18073;DHT22;9161;47.348;9.648;2023-09-12T03:21:41;16.40;99.90
18073;DHT22;9161;47.348;9.648;2023-09-12T03:26:44;16.20;99.90
18073;DHT22;9161;47.348;9.648;2023-09-12T03:31:48;16.10;99.90
18073;DHT22;9161;47.348;9.648;2023-09-12T03:36:50;16.00;99.90
18073;DHT22;9161;47.348;9.648;2023-09-12T03:41:51;16.00;99.90
18073;DHT22;9161;47.348;9.648;2023-09-12T03:46:55;15.90;99.90
18073;DHT22;9161;47.348;9.648;2023-09-12T03:51:58;16.00;99.90
18073;DHT22;9161;47.348;9.648;2023-09-12T03:57:00;15.90;99.90
18073;DHT22;9161;47.348;9.648;2023-09-12T04:02:04;16.00;99.90
18073;DHT22;9161;47.348;9.648;2023-09-12T04:07:06;15.90;99.90
18073;DHT22;9161;47.348;9.648;2023-09-12T04:12:08;15.90;99.90
18073;DHT22;9161;47.348;9.648;2023-09-12T04:17:12;15.80;99.90
18073;DHT22;9161;47.348;9.648;2023-09-12T04:22:14;15.90;99.90
18073;DHT22;9161;47.348;9.648;2023-09-12T04:27:16;15.90;99.90
18073;DHT22;9161;47.348;9.648;2023-09-12T04:32:20;15.80;99.90
18073;DHT22;9161;47.348;9.648;2023-09-12T04:37:24;15.80;99.90
18073;DHT22;9161;47.348;9.648;2023-09-12T04:42:27;15.80;99.90
18073;DHT22;9161;47.348;9.648;2023-09-12T04:47:31;15.80;99.90
18073;DHT22;9161;47.348;9.648;2023-09-12T04:52:33;15.70;99.90
18073;DHT22;9161;47.348;9.648;2023-09-12T04:57:35;15.70;99.90
18073;DHT22;9161;47.348;9.648;2023-09-12T05:02:42;15.80;99.90
18073;DHT22;9161;47.348;9.648;2023-09-12T05:07:44;15.80;99.90
18073;DHT22;9161;47.348;9.648;2023-09-12T05:12:46;15.80;99.90
18073;DHT22;9161;47.348;9.648;2023-09-12T05:17:50;15.80;99.90
18073;DHT22;9161;47.348;9.648;2023-09-12T05:22:55;15.70;99.90
18073;DHT22;9161;47.348;9.648;2023-09-12T05:27:57;15.90;99.90
18073;DHT22;9161;47.348;9.648;2023-09-12T05:33:00;15.90;99.90
18073;DHT22;9161;47.348;9.648;2023-09-12T05:38:02;15.80;99.90
18073;DHT22;9161;47.348;9.648;2023-09-12T05:43:04;16.10;99.90
18073;DHT22;9161;47.348;9.648;2023-09-12T05:48:08;16.30;99.90
18073;DHT22;9161;47.348;9.648;2023-09-12T05:53:11;16.40;99.90
18073;DHT22;9161;47.348;9.648;2023-09-12T05:58:13;16.50;99.90
18073;DHT22;9161;47.348;9.648;2023-09-12T06:03:16;16.50;99.90
18073;DHT22;9161;47.348;9.648;2023-09-12T06:08:19;16.70;99.90
18073;DHT22;9161;47.348;9.648;2023-09-12T06:13:21;16.80;99.90
18073;DHT22;9161;47.348;9.648;2023-09-12T06:18:25;17.00;99.90
18073;DHT22;9161;47.348;9.648;2023-09-12T06:23:29;17.20;99.90
18073;DHT22;9161;47.348;9.648;2023-09-12T06:28:31;17.40;99.90
18073;DHT22;9161;47.348;9.648;2023-09-12T06:33:37;18.10;99.90
18073;DHT22;9161;47.348;9.648;2023-09-12T06:38:39;18.80;99.90
18073;DHT22;9161;47.348;9.648;2023-09-12T06:43:42;19.20;99.90
18073;DHT22;9161;47.348;9.648;2023-09-12T06:48:46;19.50;99.90
18073;DHT22;9161;47.348;9.648;2023-09-12T06:53:49;19.80;99.90
18073;DHT22;9161;47.348;9.648;2023-09-12T06:58:51;20.20;99.90
18073;DHT22;9161;47.348;9.648;2023-09-12T07:03:57;20.60;99.90
18073;DHT22;9161;47.348;9.648;2023-09-12T07:08:59;21.10;99.90
18073;DHT22;9161;47.348;9.648;2023-09-12T07:14:03;20.90;99.90
18073;DHT22;9161;47.348;9.648;2023-09-12T07:19:07;21.40;99.90
18073;DHT22;9161;47.348;9.648;2023-09-12T07:24:10;21.90;99.90
18073;DHT22;9161;47.348;9.648;2023-09-12T07:29:13;22.40;99.90
18073;DHT22;9161;47.348;9.648;2023-09-12T07:34:16;22.20;99.90
18073;DHT22;9161;47.348;9.648;2023-09-12T07:39:18;22.50;99.90
18073;DHT22;9161;47.348;9.648;2023-09-12T07:44:20;22.90;99.90
18073;DHT22;9161;47.348;9.648;2023-09-12T07:49:24;23.40;99.90
18073;DHT22;9161;47.348;9.648;2023-09-12T07:54:26;24.10;99.90
18073;DHT22;9161;47.348;9.648;2023-09-12T07:59:28;24.80;99.90
18073;DHT22;9161;47.348;9.648;2023-09-12T08:04:32;25.30;99.90
18073;DHT22;9161;47.348;9.648;2023-09-12T08:09:49;25.60;99.90
18073;DHT22;9161;47.348;9.648;2023-09-12T08:14:52;26.10;99.90
18073;DHT22;9161;47.348;9.648;2023-09-12T08:19:55;26.30;99.90
18073;DHT22;9161;47.348;9.648;2023-09-12T08:24:57;26.50;99.90
18073;DHT22;9161;47.348;9.648;2023-09-12T08:29:59;26.50;99.90
18073;DHT22;9161;47.348;9.648;2023-09-12T08:35:03;26.60;99.90
18073;DHT22;9161;47.348;9.648;2023-09-12T08:40:06;26.70;99.90
18073;DHT22;9161;47.348;9.648;2023-09-12T08:45:13;26.80;99.90
18073;DHT22;9161;47.348;9.648;2023-09-12T08:50:17;26.40;99.90
18073;DHT22;9161;47.348;9.648;2023-09-12T08:55:19;27.30;99.90
18073;DHT22;9161;47.348;9.648;2023-09-12T09:00:21;27.30;99.90
18073;DHT22;9161;47.348;9.648;2023-09-12T09:05:27;26.90;99.90
18073;DHT22;9161;47.348;9.648;2023-09-12T09:10:29;26.90;99.90
18073;DHT22;9161;47.348;9.648;2023-09-12T09:16:09;26.10;99.90
18073;DHT22;9161;47.348;9.648;2023-09-12T09:21:18;28.10;99.90
18073;DHT22;9161;47.348;9.648;2023-09-12T09:26:21;29.00;99.90
18073;DHT22;9161;47.348;9.648;2023-09-12T09:31:24;29.20;99.90
18073;DHT22;9161;47.348;9.648;2023-09-12T09:36:28;29.30;99.90
18073;DHT22;9161;47.348;9.648;2023-09-12T09:41:31;29.80;99.90
18073;DHT22;9161;47.348;9.648;2023-09-12T09:46:35;30.10;99.90
18073;DHT22;9161;47.348;9.648;2023-09-12T09:51:42;30.50;99.90
18073;DHT22;9161;47.348;9.648;2023-09-12T09:56:48;31.20;99.90
18073;DHT22;9161;47.348;9.648;2023-09-12T10:01:52;31.80;99.90
18073;DHT22;9161;47.348;9.648;2023-09-12T10:06:57;32.40;99.90
18073;DHT22;9161;47.348;9.648;2023-09-12T10:12:00;32.30;99.90
18073;DHT22;9161;47.348;9.648;2023-09-12T10:17:02;32.50;99.90
18073;DHT22;9161;47.348;9.648;2023-09-12T10:22:12;32.50;99.90
18073;DHT22;9161;47.348;9.648;2023-09-12T10:27:15;32.90;99.90
18073;DHT22;9161;47.348;9.648;2023-09-12T10:32:19;33.10;99.90
18073;DHT22;9161;47.348;9.648;2023-09-12T10:37:22;33.10;99.90
18073;DHT22;9161;47.348;9.648;2023-09-12T10:42:27;33.40;99.90
18073;DHT22;9161;47.348;9.648;2023-09-12T10:47:30;32.90;99.90
18073;DHT22;9161;47.348;9.648;2023-09-12T10:52:34;33.10;99.90
18073;DHT22;9161;47.348;9.648;2023-09-12T10:58:00;33.30;99.90
18073;DHT22;9161;47.348;9.648;2023-09-12T11:03:36;33.40;99.90
18073;DHT22;9161;47.348;9.648;2023-09-12T11:08:41;33.70;99.90
18073;DHT22;9161;47.348;9.648;2023-09-12T11:13:45;34.10;99.90
18073;DHT22;9161;47.348;9.648;2023-09-12T11:19:13;33.10;99.90
18073;DHT22;9161;47.348;9.648;2023-09-12T11:24:17;33.90;99.90
18073;DHT22;9161;47.348;9.648;2023-09-12T11:29:19;34.60;99.90
18073;DHT22;9161;47.348;9.648;2023-09-12T11:34:21;34.60;99.30
18073;DHT22;9161;47.348;9.648;2023-09-12T11:39:29;34.70;99.90
18073;DHT22;9161;47.348;9.648;2023-09-12T11:44:31;35.20;99.90
18073;DHT22;9161;47.348;9.648;2023-09-12T11:49:37;35.10;99.00
18073;DHT22;9161;47.348;9.648;2023-09-12T11:54:43;35.30;99.90
18073;DHT22;9161;47.348;9.648;2023-09-12T11:59:46;34.80;99.40
18073;DHT22;9161;47.348;9.648;2023-09-12T12:04:50;34.60;97.90
18073;DHT22;9161;47.348;9.648;2023-09-12T12:09:56;35.10;98.60
18073;DHT22;9161;47.348;9.648;2023-09-12T12:14:58;35.50;99.90
18073;DHT22;9161;47.348;9.648;2023-09-12T12:20:00;35.30;99.10
18073;DHT22;9161;47.348;9.648;2023-09-12T12:25:11;35.30;99.90
18073;DHT22;9161;47.348;9.648;2023-09-12T12:30:18;35.50;99.60
18073;DHT22;9161;47.348;9.648;2023-09-12T12:35:23;35.00;98.80
18073;DHT22;9161;47.348;9.648;2023-09-12T12:40:47;35.40;99.20
18073;DHT22;9161;47.348;9.648;2023-09-12T12:45:53;35.10;98.30
18073;DHT22;9161;47.348;9.648;2023-09-12T12:50:56;35.90;99.50
18073;DHT22;9161;47.348;9.648;2023-09-12T12:56:00;36.20;97.40
18073;DHT22;9161;47.348;9.648;2023-09-12T13:01:02;36.40;98.20
18073;DHT22;9161;47.348;9.648;2023-09-12T13:06:04;34.80;96.90
18073;DHT22;9161;47.348;9.648;2023-09-12T13:11:09;33.50;97.90
18073;DHT22;9161;47.348;9.648;2023-09-12T13:16:13;31.50;98.90
18073;DHT22;9161;47.348;9.648;2023-09-12T13:21:16;29.90;99.90
18073;DHT22;9161;47.348;9.648;2023-09-12T13:26:19;29.10;99.90
18073;DHT22;9161;47.348;9.648;2023-09-12T13:31:21;28.70;99.90
18073;DHT22;9161;47.348;9.648;2023-09-12T13:36:23;28.30;99.90
18073;DHT22;9161;47.348;9.648;2023-09-12T13:41:27;28.00;99.90
18073;DHT22;9161;47.348;9.648;2023-09-12T13:46:29;27.70;99.90
18073;DHT22;9161;47.348;9.648;2023-09-12T13:51:32;27.40;99.90
18073;DHT22;9161;47.348;9.648;2023-09-12T13:56:35;27.10;99.90
18073;DHT22;9161;47.348;9.648;2023-09-12T14:01:38;26.80;99.90
18073;DHT22;9161;47.348;9.648;2023-09-12T14:06:41;26.50;99.90
18073;DHT22;9161;47.348;9.648;2023-09-12T14:11:47;26.10;99.90
18073;DHT22;9161;47.348;9.648;2023-09-12T14:16:51;25.90;99.90
18073;DHT22;9161;47.348;9.648;2023-09-12T14:21:57;25.80;99.90
18073;DHT22;9161;47.348;9.648;2023-09-12T14:27:08;25.60;99.90
18073;DHT22;9161;47.348;9.648;2023-09-12T14:32:27;25.30;99.90
18073;DHT22;9161;47.348;9.648;2023-09-12T14:37:33;25.30;99.90
18073;DHT22;9161;47.348;9.648;2023-09-12T14:42:40;25.20;99.90
18073;DHT22;9161;47.348;9.648;2023-09-12T14:47:46;24.90;99.90
18073;DHT22;9161;47.348;9.648;2023-09-12T14:52:54;24.90;99.90
18073;DHT22;9161;47.348;9.648;2023-09-12T14:58:01;24.10;99.90
18073;DHT22;9161;47.348;9.648;2023-09-12T15:03:17;23.50;99.90
18073;DHT22;9161;47.348;9.648;2023-09-12T15:08:25;23.00;99.90
18073;DHT22;9161;47.348;9.648;2023-09-12T15:13:39;22.90;99.90
18073;DHT22;9161;47.348;9.648;2023-09-12T15:18:47;22.70;99.90
18073;DHT22;9161;47.348;9.648;2023-09-12T15:23:53;22.30;99.90
18073;DHT22;9161;47.348;9.648;2023-09-12T15:29:02;22.20;99.90
18073;DHT22;9161;47.348;9.648;2023-09-12T15:34:09;21.90;99.90
18073;DHT22;9161;47.348;9.648;2023-09-12T15:39:15;21.90;99.90
18073;DHT22;9161;47.348;9.648;2023-09-12T15:44:24;21.90;99.90
18073;DHT22;9161;47.348;9.648;2023-09-12T15:49:37;21.70;99.90
18073;DHT22;9161;47.348;9.648;2023-09-12T15:54:44;22.20;99.90
18073;DHT22;9161;47.348;9.648;2023-09-12T15:59:49;21.80;99.90
18073;DHT22;9161;47.348;9.648;2023-09-12T16:04:54;23.10;99.90
18073;DHT22;9161;47.348;9.648;2023-09-12T16:10:00;24.80;99.90
18073;DHT22;9161;47.348;9.648;2023-09-12T16:15:13;25.40;99.90
18073;DHT22;9161;47.348;9.648;2023-09-12T16:20:22;24.00;99.90
18073;DHT22;9161;47.348;9.648;2023-09-12T16:25:30;23.40;99.90
18073;DHT22;9161;47.348;9.648;2023-09-12T16:30:39;23.00;99.90
18073;DHT22;9161;47.348;9.648;2023-09-12T16:35:47;22.70;99.90
18073;DHT22;9161;47.348;9.648;2023-09-12T16:40:53;22.60;99.90
18073;DHT22;9161;47.348;9.648;2023-09-12T16:46:00;22.50;99.90
18073;DHT22;9161;47.348;9.648;2023-09-12T16:51:04;22.10;99.90
18073;DHT22;9161;47.348;9.648;2023-09-12T16:56:10;22.10;99.90
18073;DHT22;9161;47.348;9.648;2023-09-12T17:01:17;22.00;99.90
18073;DHT22;9161;47.348;9.648;2023-09-12T17:06:22;21.80;99.90
18073;DHT22;9161;47.348;9.648;2023-09-12T17:11:28;21.50;99.90
18073;DHT22;9161;47.348;9.648;2023-09-12T17:16:37;21.40;99.90
18073;DHT22;9161;47.348;9.648;2023-09-12T17:21:43;21.30;99.90
18073;DHT22;9161;47.348;9.648;2023-09-12T17:26:53;21.20;99.90
18073;DHT22;9161;47.348;9.648;2023-09-12T17:32:10;21.00;99.90
18073;DHT22;9161;47.348;9.648;2023-09-12T17:37:20;20.70;99.90
18073;DHT22;9161;47.348;9.648;2023-09-12T17:42:28;20.50;99.90
18073;DHT22;9161;47.348;9.648;2023-09-12T17:47:41;20.40;99.90
18073;DHT22;9161;47.348;9.648;2023-09-12T17:52:56;20.50;99.90
18073;DHT22;9161;47.348;9.648;2023-09-12T17:58:05;20.20;99.90
18073;DHT22;9161;47.348;9.648;2023-09-12T18:03:16;20.40;99.90
18073;DHT22;9161;47.348;9.648;2023-09-12T18:08:28;20.40;99.90
18073;DHT22;9161;47.348;9.648;2023-09-12T18:13:40;20.40;99.90
18073;DHT22;9161;47.348;9.648;2023-09-12T18:18:53;20.40;99.90
18073;DHT22;9161;47.348;9.648;2023-09-12T18:24:03;20.20;99.90
18073;DHT22;9161;47.348;9.648;2023-09-12T18:29:17;20.20;99.90
18073;DHT22;9161;47.348;9.648;2023-09-12T18:34:30;20.10;99.90
18073;DHT22;9161;47.348;9.648;2023-09-12T18:39:45;20.10;99.90
18073;DHT22;9161;47.348;9.648;2023-09-12T18:44:55;20.10;99.90
18073;DHT22;9161;47.348;9.648;2023-09-12T18:50:07;20.10;99.90
18073;DHT22;9161;47.348;9.648;2023-09-12T18:55:16;20.00;99.90
18073;DHT22;9161;47.348;9.648;2023-09-12T19:00:41;20.20;99.90
18073;DHT22;9161;47.348;9.648;2023-09-12T19:06:25;20.30;99.90
18073;DHT22;9161;47.348;9.648;2023-09-12T19:11:34;20.30;99.90
18073;DHT22;9161;47.348;9.648;2023-09-12T19:16:56;20.20;99.90
18073;DHT22;9161;47.348;9.648;2023-09-12T19:22:08;20.20;99.90
18073;DHT22;9161;47.348;9.648;2023-09-12T19:27:15;20.10;99.90
18073;DHT22;9161;47.348;9.648;2023-09-12T19:32:46;20.10;99.90
18073;DHT22;9161;47.348;9.648;2023-09-12T19:38:04;20.00;99.90
18073;DHT22;9161;47.348;9.648;2023-09-12T19:43:19;19.70;99.90
18073;DHT22;9161;47.348;9.648;2023-09-12T19:48:35;19.70;99.90
18073;DHT22;9161;47.348;9.648;2023-09-12T19:53:45;19.60;99.90
18073;DHT22;9161;47.348;9.648;2023-09-12T19:58:52;19.40;99.90
18073;DHT22;9161;47.348;9.648;2023-09-12T20:04:00;19.60;99.90
18073;DHT22;9161;47.348;9.648;2023-09-12T20:09:11;20.10;99.90
18073;DHT22;9161;47.348;9.648;2023-09-12T20:14:19;20.50;99.90
18073;DHT22;9161;47.348;9.648;2023-09-12T20:19:24;20.80;99.90
18073;DHT22;9161;47.348;9.648;2023-09-12T20:24:32;21.00;99.90
18073;DHT22;9161;47.348;9.648;2023-09-12T20:29:38;21.00;99.90
18073;DHT22;9161;47.348;9.648;2023-09-12T20:34:44;20.70;99.90
18073;DHT22;9161;47.348;9.648;2023-09-12T20:39:51;20.40;99.90
18073;DHT22;9161;47.348;9.648;2023-09-12T20:44:57;20.20;99.90
18073;DHT22;9161;47.348;9.648;2023-09-12T20:50:16;20.10;99.90
18073;DHT22;9161;47.348;9.648;2023-09-12T20:55:30;19.90;99.90
18073;DHT22;9161;47.348;9.648;2023-09-12T21:00:36;19.70;99.90
18073;DHT22;9161;47.348;9.648;2023-09-12T21:05:40;19.70;99.90
18073;DHT22;9161;47.348;9.648;2023-09-12T21:10:48;19.40;99.90
18073;DHT22;9161;47.348;9.648;2023-09-12T21:15:51;19.40;99.90
18073;DHT22;9161;47.348;9.648;2023-09-12T21:20:54;19.30;99.90
18073;DHT22;9161;47.348;9.648;2023-09-12T21:25:58;19.30;99.90
18073;DHT22;9161;47.348;9.648;2023-09-12T21:31:00;19.30;99.90
18073;DHT22;9161;47.348;9.648;2023-09-12T21:36:04;19.70;99.90
18073;DHT22;9161;47.348;9.648;2023-09-12T21:41:09;20.40;99.90
18073;DHT22;9161;47.348;9.648;2023-09-12T21:46:11;20.80;99.90
18073;DHT22;9161;47.348;9.648;2023-09-12T21:51:13;20.80;99.90
18073;DHT22;9161;47.348;9.648;2023-09-12T21:56:17;20.90;99.90
18073;DHT22;9161;47.348;9.648;2023-09-12T22:01:19;20.60;99.90
18073;DHT22;9161;47.348;9.648;2023-09-12T22:06:22;20.10;99.90
18073;DHT22;9161;47.348;9.648;2023-09-12T22:11:29;19.80;99.90
18073;DHT22;9161;47.348;9.648;2023-09-12T22:16:32;19.60;99.90
18073;DHT22;9161;47.348;9.648;2023-09-12T22:21:37;19.50;99.90
18073;DHT22;9161;47.348;9.648;2023-09-12T22:26:41;19.40;99.90
18073;DHT22;9161;47.348;9.648;2023-09-12T22:31:43;19.30;99.90
18073;DHT22;9161;47.348;9.648;2023-09-12T22:36:45;19.20;99.90
18073;DHT22;9161;47.348;9.648;2023-09-12T22:41:49;19.10;99.90
18073;DHT22;9161;47.348;9.648;2023-09-12T22:46:52;19.10;99.90
18073;DHT22;9161;47.348;9.648;2023-09-12T22:51:54;19.00;99.90
18073;DHT22;9161;47.348;9.648;2023-09-12T22:56:58;19.00;99.90
18073;DHT22;9161;47.348;9.648;2023-09-12T23:02:00;19.00;99.90
18073;DHT22;9161;47.348;9.648;2023-09-12T23:07:02;19.00;99.90
18073;DHT22;9161;47.348;9.648;2023-09-12T23:12:07;18.90;99.90
18073;DHT22;9161;47.348;9.648;2023-09-12T23:17:10;19.00;99.90
18073;DHT22;9161;47.348;9.648;2023-09-12T23:22:12;18.80;99.90
18073;DHT22;9161;47.348;9.648;2023-09-12T23:27:16;18.70;99.90
18073;DHT22;9161;47.348;9.648;2023-09-12T23:32:18;18.60;99.90
18073;DHT22;9161;47.348;9.648;2023-09-12T23:37:22;18.60;99.90
18073;DHT22;9161;47.348;9.648;2023-09-12T23:42:27;18.50;99.90
18073;DHT22;9161;47.348;9.648;2023-09-12T23:47:29;18.40;99.90
18073;DHT22;9161;47.348;9.648;2023-09-12T23:52:32;18.40;99.90
18073;DHT22;9161;47.348;9.648;2023-09-12T23:57:37;18.40;99.90
